createdAt,value
2022-08-17T00:00:43.019Z,21.00
2022-08-17T00:03:17.364Z,21.00
2022-08-17T00:05:49.563Z,21.00
2022-08-17T00:08:23.176Z,21.00
2022-08-17T00:10:53.252Z,21.00
2022-08-17T00:13:26.040Z,21.00
2022-08-17T00:15:59.696Z,21.10
2022-08-17T00:18:53.796Z,21.00
2022-08-17T00:21:25.231Z,21.40
2022-08-17T00:23:55.601Z,21.00
2022-08-17T00:26:43.173Z,20.90
2022-08-17T00:29:19.564Z,20.90
2022-08-17T00:31:49.976Z,20.90
2022-08-17T00:34:20.128Z,20.90
2022-08-17T00:36:48.949Z,20.80
2022-08-17T00:39:17.730Z,20.80
2022-08-17T00:41:46.437Z,20.80
2022-08-17T00:44:15.846Z,20.70
2022-08-17T00:46:47.739Z,20.70
2022-08-17T00:49:19.539Z,20.70
2022-08-17T00:51:56.017Z,20.70
2022-08-17T00:54:30.577Z,20.80
2022-08-17T00:57:07.948Z,20.70
2022-08-17T00:59:43.603Z,20.70
2022-08-17T01:02:16.751Z,20.70
2022-08-17T01:04:49.432Z,20.60
2022-08-17T01:07:24.258Z,20.60
2022-08-17T01:09:52.661Z,20.50
2022-08-17T01:12:21.536Z,20.50
2022-08-17T01:14:49.830Z,20.60
2022-08-17T01:17:19.216Z,20.60
2022-08-17T01:19:47.946Z,20.50
2022-08-17T01:22:22.132Z,20.50
2022-08-17T01:24:54.375Z,20.50
2022-08-17T01:27:23.843Z,20.50
2022-08-17T01:29:59.472Z,20.60
2022-08-17T01:32:30.289Z,20.60
2022-08-17T01:35:01.548Z,20.70
2022-08-17T01:37:35.365Z,20.60
2022-08-17T01:40:10.166Z,20.50
2022-08-17T01:42:45.820Z,20.40
2022-08-17T01:45:20.005Z,20.40
2022-08-17T01:47:49.347Z,20.40
2022-08-17T01:50:24.262Z,20.30
2022-08-17T01:52:59.540Z,20.30
2022-08-17T01:55:39.123Z,20.20
2022-08-17T01:58:09.732Z,20.00
2022-08-17T02:00:59.665Z,19.90
2022-08-17T02:03:31.932Z,19.80
2022-08-17T02:06:00.892Z,19.80
2022-08-17T02:08:37.052Z,19.80
2022-08-17T02:11:15.696Z,19.80
2022-08-17T02:13:45.440Z,19.70
2022-08-17T02:16:14.661Z,19.70
2022-08-17T02:18:43.201Z,19.70
2022-08-17T02:21:11.909Z,19.70
2022-08-17T02:23:47.385Z,19.70
2022-08-17T02:26:24.016Z,19.60
2022-08-17T02:28:54.838Z,19.60
2022-08-17T02:31:23.189Z,19.60
2022-08-17T02:34:00.549Z,19.60
2022-08-17T02:36:35.253Z,19.60
2022-08-17T02:39:09.179Z,19.60
2022-08-17T02:41:37.946Z,19.60
2022-08-17T02:44:07.026Z,19.70
2022-08-17T02:46:35.466Z,19.70
2022-08-17T02:49:04.821Z,19.80
2022-08-17T02:51:33.480Z,19.70
2022-08-17T02:54:39.161Z,19.80
2022-08-17T02:56:51.376Z,19.80
2022-08-17T02:59:19.824Z,19.80
2022-08-17T03:01:48.633Z,19.80
2022-08-17T03:04:17.096Z,19.70
2022-08-17T03:06:45.382Z,19.70
2022-08-17T03:09:13.765Z,19.60
2022-08-17T03:11:42.090Z,19.70
2022-08-17T03:14:11.844Z,19.70
2022-08-17T03:16:41.245Z,19.60
2022-08-17T03:19:10.787Z,19.60
2022-08-17T03:21:39.296Z,19.60
2022-08-17T03:24:09.147Z,19.50
2022-08-17T03:26:37.675Z,19.40
2022-08-17T03:29:05.972Z,19.40
2022-08-17T03:31:37.116Z,19.40
2022-08-17T03:34:05.970Z,19.40
2022-08-17T03:36:36.042Z,19.40
2022-08-17T03:39:05.384Z,19.30
2022-08-17T03:41:34.310Z,19.40
2022-08-17T03:44:03.030Z,19.40
2022-08-17T03:46:48.824Z,19.40
2022-08-17T03:49:36.035Z,19.50
2022-08-17T03:52:22.608Z,19.50
2022-08-17T03:55:08.490Z,19.50
2022-08-17T03:57:38.000Z,19.50
2022-08-17T04:00:08.231Z,19.50
2022-08-17T04:02:43.269Z,19.50
2022-08-17T04:05:14.909Z,19.50
2022-08-17T04:07:43.266Z,19.50
2022-08-17T04:10:11.539Z,19.50
2022-08-17T04:12:49.122Z,20.60
2022-08-17T04:15:18.511Z,19.60
2022-08-17T04:17:46.801Z,19.70
2022-08-17T04:20:21.547Z,19.70
2022-08-17T04:23:03.036Z,19.80
2022-08-17T04:25:36.276Z,19.90
2022-08-17T04:28:14.568Z,19.90
2022-08-17T04:30:46.010Z,20.00
2022-08-17T04:33:18.505Z,20.10
2022-08-17T04:35:51.903Z,20.20
2022-08-17T04:38:24.356Z,20.30
2022-08-17T04:41:11.314Z,20.50
2022-08-17T04:43:42.375Z,20.60
2022-08-17T04:46:15.092Z,20.80
2022-08-17T04:48:46.774Z,21.10
2022-08-17T04:51:28.119Z,21.40
2022-08-17T04:53:59.833Z,21.80
2022-08-17T04:56:31.146Z,22.10
2022-08-17T04:59:08.834Z,22.40
2022-08-17T05:01:40.367Z,22.70
2022-08-17T05:04:33.248Z,22.70
2022-08-17T05:07:04.540Z,22.70
2022-08-17T05:09:33.447Z,22.80
2022-08-17T05:12:02.223Z,22.90
2022-08-17T05:14:32.989Z,23.00
2022-08-17T05:17:07.350Z,23.30
2022-08-17T05:19:39.586Z,23.70
2022-08-17T05:22:09.367Z,24.10
2022-08-17T05:24:39.061Z,24.50
2022-08-17T05:27:14.326Z,24.80
2022-08-17T05:29:47.856Z,25.00
2022-08-17T05:32:39.221Z,25.30
2022-08-17T05:35:07.042Z,25.50
2022-08-17T05:37:36.630Z,25.80
2022-08-17T05:40:06.812Z,25.90
2022-08-17T05:42:35.962Z,26.00
2022-08-17T05:45:05.286Z,26.10
2022-08-17T05:47:33.922Z,26.30
2022-08-17T05:50:03.936Z,26.40
2022-08-17T05:52:51.108Z,26.50
2022-08-17T05:55:33.413Z,26.50
2022-08-17T05:58:17.975Z,26.60
2022-08-17T06:01:00.956Z,27.00
2022-08-17T06:03:45.277Z,27.70
2022-08-17T06:06:31.411Z,28.50
2022-08-17T06:09:25.783Z,29.00
2022-08-17T06:12:07.454Z,29.60
2022-08-17T06:15:04.794Z,29.90
2022-08-17T06:17:34.872Z,30.60
2022-08-17T06:20:11.056Z,31.00
2022-08-17T06:22:47.967Z,31.60
2022-08-17T06:25:24.562Z,31.90
2022-08-17T06:27:59.668Z,32.10
2022-08-17T06:30:57.466Z,32.00
2022-08-17T06:33:34.284Z,31.80
2022-08-17T06:36:24.603Z,31.30
2022-08-17T06:39:20.540Z,31.20
2022-08-17T06:42:05.522Z,30.80
2022-08-17T06:44:51.457Z,30.80
2022-08-17T06:47:29.311Z,30.70
2022-08-17T06:50:14.646Z,30.50
2022-08-17T06:52:53.962Z,30.20
2022-08-17T06:55:34.467Z,30.00
2022-08-17T06:58:15.665Z,29.90
2022-08-17T07:00:48.850Z,29.50
2022-08-17T07:03:30.803Z,29.30
2022-08-17T07:06:06.919Z,29.30
2022-08-17T07:08:58.972Z,28.80
2022-08-17T07:11:37.452Z,28.40
2022-08-17T07:14:36.443Z,28.60
2022-08-17T07:17:15.329Z,29.10
2022-08-17T07:19:48.668Z,29.70
2022-08-17T07:22:53.525Z,29.90
2022-08-17T07:25:21.373Z,29.80
2022-08-17T07:27:54.062Z,29.50
2022-08-17T07:30:27.993Z,29.20
2022-08-17T07:33:00.311Z,29.10
2022-08-17T07:35:41.221Z,29.20
2022-08-17T07:38:25.221Z,29.30
2022-08-17T07:41:05.947Z,30.00
2022-08-17T07:43:38.107Z,30.40
2022-08-17T07:46:37.062Z,30.10
2022-08-17T07:49:33.648Z,29.90
2022-08-17T07:52:47.537Z,29.70
2022-08-17T07:54:57.324Z,29.40
2022-08-17T07:57:35.227Z,29.90
2022-08-17T08:00:30.801Z,29.90
2022-08-17T08:03:16.529Z,30.20
2022-08-17T08:05:56.085Z,30.90
2022-08-17T08:08:32.270Z,31.00
2022-08-17T08:11:09.811Z,30.50
2022-08-17T08:13:45.307Z,30.30
2022-08-17T08:16:27.052Z,30.40
2022-08-17T08:19:00.294Z,30.40
2022-08-17T08:21:43.466Z,30.90
2022-08-17T08:24:41.408Z,30.80
2022-08-17T08:27:27.444Z,30.90
2022-08-17T08:30:05.391Z,31.10
2022-08-17T08:32:53.960Z,31.50
2022-08-17T08:35:36.892Z,31.40
2022-08-17T08:38:19.974Z,31.30
2022-08-17T08:41:17.300Z,30.60
2022-08-17T08:43:56.845Z,30.30
2022-08-17T08:46:37.569Z,30.30
2022-08-17T08:50:02.833Z,31.00
2022-08-17T08:52:51.901Z,31.80
2022-08-17T08:55:34.544Z,32.10
2022-08-17T08:58:31.455Z,32.50
2022-08-17T09:01:03.775Z,32.40
2022-08-17T09:04:23.173Z,32.50
2022-08-17T09:07:12.469Z,32.00
2022-08-17T09:09:59.274Z,31.90
2022-08-17T09:12:47.590Z,32.30
2022-08-17T09:15:21.645Z,32.10
2022-08-17T09:18:21.298Z,31.20
2022-08-17T09:20:55.240Z,31.40
2022-08-17T09:23:35.362Z,32.00
2022-08-17T09:26:15.530Z,31.70
2022-08-17T09:28:51.169Z,32.20
2022-08-17T09:31:31.286Z,32.10
2022-08-17T09:34:09.938Z,32.40
2022-08-17T09:36:48.764Z,32.60
2022-08-17T09:39:28.547Z,31.70
2022-08-17T09:42:08.038Z,31.40
2022-08-17T09:44:43.671Z,31.60
2022-08-17T09:47:18.925Z,32.20
2022-08-17T09:49:56.028Z,32.00
2022-08-17T09:52:26.980Z,31.90
2022-08-17T09:54:58.632Z,31.80
2022-08-17T09:57:56.246Z,31.90
2022-08-17T10:00:29.106Z,32.30
2022-08-17T10:03:28.163Z,32.60
2022-08-17T10:06:07.798Z,32.90
2022-08-17T10:08:51.827Z,32.40
2022-08-17T10:11:48.329Z,32.10
2022-08-17T10:14:38.048Z,31.40
2022-08-17T10:17:25.758Z,32.10
2022-08-17T10:20:04.189Z,32.50
2022-08-17T10:22:59.615Z,32.30
2022-08-17T10:25:54.989Z,31.60
2022-08-17T10:28:30.928Z,31.80
2022-08-17T10:34:19.138Z,33.20
2022-08-17T10:37:02.441Z,33.40
2022-08-17T10:39:52.032Z,32.30
2022-08-17T10:42:32.654Z,31.50
2022-08-17T10:45:08.244Z,31.00
2022-08-17T10:48:06.239Z,30.60
2022-08-17T10:50:58.464Z,31.00
2022-08-17T10:53:53.553Z,30.70
2022-08-17T10:56:40.260Z,31.00
2022-08-17T10:59:09.604Z,31.10
2022-08-17T11:02:13.839Z,30.90
2022-08-17T11:05:04.811Z,30.70
2022-08-17T11:07:58.717Z,30.40
2022-08-17T11:10:57.429Z,30.30
2022-08-17T11:13:39.998Z,30.50
2022-08-17T11:16:45.626Z,30.40
2022-08-17T11:20:02.319Z,30.10
2022-08-17T11:23:28.517Z,29.90
2022-08-17T11:26:08.096Z,30.10
2022-08-17T11:28:52.758Z,30.30
2022-08-17T11:31:39.274Z,30.20
2022-08-17T11:34:19.572Z,30.30
2022-08-17T11:37:20.625Z,30.40
2022-08-17T11:40:22.524Z,30.00
2022-08-17T11:43:09.814Z,29.80
2022-08-17T11:46:03.856Z,29.50
2022-08-17T11:49:00.504Z,29.50
2022-08-17T11:52:13.770Z,29.80
2022-08-17T11:54:47.188Z,29.80
2022-08-17T11:58:01.527Z,29.80
2022-08-17T12:00:57.607Z,29.80
2022-08-17T12:03:55.449Z,29.90
2022-08-17T12:06:44.899Z,29.90
2022-08-17T12:09:22.031Z,29.60
2022-08-17T12:12:12.523Z,29.60
2022-08-17T12:17:42.917Z,29.30
2022-08-17T12:20:27.754Z,29.10
2022-08-17T12:23:07.703Z,29.20
2022-08-17T12:25:47.754Z,29.30
2022-08-17T12:28:25.698Z,29.50
2022-08-17T12:30:54.702Z,29.50
2022-08-17T12:33:28.902Z,29.50
2022-08-17T12:36:02.708Z,29.40
2022-08-17T12:38:34.697Z,29.30
2022-08-17T12:41:22.057Z,29.30
2022-08-17T12:44:01.502Z,29.30
2022-08-17T12:46:45.693Z,29.30
2022-08-17T12:49:22.586Z,29.40
2022-08-17T12:51:57.973Z,29.30
2022-08-17T12:54:39.918Z,29.30
2022-08-17T12:57:16.736Z,29.30
2022-08-17T12:59:51.203Z,29.30
2022-08-17T13:02:40.396Z,29.30
2022-08-17T13:05:22.947Z,29.30
2022-08-17T13:07:53.126Z,29.20
2022-08-17T13:10:32.864Z,29.20
2022-08-17T13:13:17.731Z,29.30
2022-08-17T13:15:56.280Z,29.30
2022-08-17T13:18:41.686Z,29.30
2022-08-17T13:21:22.259Z,29.30
2022-08-17T13:24:00.434Z,29.50
2022-08-17T13:26:35.423Z,29.80
2022-08-17T13:29:09.159Z,29.80
2022-08-17T13:31:50.401Z,29.80
2022-08-17T13:35:12.031Z,29.90
2022-08-17T13:37:34.321Z,30.10
2022-08-17T13:40:30.793Z,30.30
2022-08-17T13:43:00.020Z,30.30
2022-08-17T13:45:52.959Z,30.50
2022-08-17T13:48:30.087Z,30.90
2022-08-17T13:51:23.543Z,31.20
2022-08-17T13:54:01.542Z,31.50
2022-08-17T13:56:41.645Z,31.50
2022-08-17T13:59:16.332Z,31.40
2022-08-17T14:01:53.886Z,31.50
2022-08-17T14:04:27.761Z,31.60
2022-08-17T14:06:59.684Z,31.60
2022-08-17T14:09:37.560Z,31.80
2022-08-17T14:12:12.405Z,31.90
2022-08-17T14:14:42.538Z,32.10
2022-08-17T14:17:13.413Z,32.20
2022-08-17T14:19:42.564Z,32.20
2022-08-17T14:22:19.745Z,32.10
2022-08-17T14:24:48.228Z,32.00
2022-08-17T14:27:17.941Z,32.00
2022-08-17T14:29:46.368Z,32.00
2022-08-17T14:32:21.260Z,31.90
2022-08-17T14:34:50.624Z,31.40
2022-08-17T14:37:21.709Z,31.10
2022-08-17T14:39:50.089Z,31.00
2022-08-17T14:42:20.472Z,31.20
2022-08-17T14:44:50.954Z,31.20
2022-08-17T14:47:21.880Z,31.30
2022-08-17T14:49:51.030Z,31.30
2022-08-17T14:52:22.372Z,31.40
2022-08-17T14:54:53.313Z,31.30
2022-08-17T14:57:34.001Z,31.40
2022-08-17T15:00:05.141Z,31.40
2022-08-17T15:02:48.140Z,31.30
2022-08-17T15:05:18.174Z,31.40
2022-08-17T15:07:46.856Z,31.30
2022-08-17T15:10:17.129Z,31.00
2022-08-17T15:12:45.494Z,31.00
2022-08-17T15:15:17.712Z,31.10
2022-08-17T15:17:47.731Z,31.10
2022-08-17T15:20:20.637Z,31.20
2022-08-17T15:22:50.506Z,31.10
2022-08-17T15:25:22.121Z,31.10
2022-08-17T15:27:51.433Z,31.10
2022-08-17T15:30:21.108Z,31.00
2022-08-17T15:32:55.115Z,30.90
2022-08-17T15:35:28.763Z,30.90
2022-08-17T15:38:04.664Z,30.80
2022-08-17T15:40:38.436Z,30.80
2022-08-17T15:43:11.181Z,30.90
2022-08-17T15:45:40.956Z,30.80
2022-08-17T15:48:11.460Z,30.80
2022-08-17T15:50:39.806Z,30.80
2022-08-17T15:53:08.411Z,30.80
2022-08-17T15:55:38.532Z,30.90
2022-08-17T15:58:07.206Z,30.80
2022-08-17T16:00:52.918Z,30.70
2022-08-17T16:03:56.108Z,30.80
2022-08-17T16:06:15.357Z,31.00
2022-08-17T16:08:45.954Z,30.80
2022-08-17T16:11:16.753Z,30.80
2022-08-17T16:13:54.482Z,30.70
2022-08-17T16:16:24.515Z,30.60
2022-08-17T16:18:58.496Z,30.40
2022-08-17T16:21:29.524Z,30.20
2022-08-17T16:24:05.315Z,30.10
2022-08-17T16:26:42.086Z,30.00
2022-08-17T16:29:11.310Z,30.00
2022-08-17T16:31:41.690Z,29.90
2022-08-17T16:34:17.877Z,29.90
2022-08-17T16:36:55.456Z,29.90
2022-08-17T16:39:26.556Z,29.80
2022-08-17T16:41:55.767Z,29.70
2022-08-17T16:44:24.185Z,29.60
2022-08-17T16:46:52.556Z,29.60
2022-08-17T16:49:24.507Z,29.60
2022-08-17T16:52:10.807Z,29.50
2022-08-17T16:54:43.604Z,29.40
2022-08-17T16:57:13.196Z,29.30
2022-08-17T16:59:47.496Z,29.20
2022-08-17T17:02:25.354Z,29.10
2022-08-17T17:05:08.390Z,29.10
2022-08-17T17:07:55.762Z,29.10
2022-08-17T17:10:32.235Z,29.00
2022-08-17T17:13:02.164Z,28.90
2022-08-17T17:15:54.273Z,28.90
2022-08-17T17:18:33.078Z,28.80
2022-08-17T17:21:02.980Z,28.70
2022-08-17T17:23:42.051Z,28.60
2022-08-17T17:26:29.668Z,28.60
2022-08-17T17:29:21.551Z,28.50
2022-08-17T17:32:05.357Z,28.50
2022-08-17T17:34:36.374Z,28.50
2022-08-17T17:37:13.860Z,28.50
2022-08-17T17:39:49.961Z,28.50
2022-08-17T17:42:23.697Z,28.50
2022-08-17T17:45:06.820Z,28.50
2022-08-17T17:47:36.589Z,28.50
2022-08-17T17:50:08.713Z,28.40
2022-08-17T17:52:55.418Z,28.50
2022-08-17T17:55:52.516Z,28.50
2022-08-17T17:58:44.445Z,28.50
2022-08-17T18:01:29.339Z,28.50
2022-08-17T18:04:20.778Z,28.80
2022-08-17T18:07:16.585Z,29.20
2022-08-17T18:10:19.701Z,28.20
2022-08-17T18:13:16.223Z,28.10
2022-08-17T18:15:51.065Z,27.90
2022-08-17T18:18:37.787Z,27.80
2022-08-17T18:21:16.782Z,27.60
2022-08-17T18:23:56.755Z,27.50
2022-08-17T18:26:50.926Z,27.40
2022-08-17T18:29:41.535Z,27.30
2022-08-17T18:32:42.066Z,27.30
2022-08-17T18:35:35.031Z,27.10
2022-08-17T18:38:27.980Z,27.00
2022-08-17T18:41:18.016Z,27.00
2022-08-17T18:44:02.457Z,26.90
2022-08-17T18:46:36.611Z,26.90
2022-08-17T18:49:24.789Z,26.80
2022-08-17T18:52:14.149Z,26.80
2022-08-17T18:55:02.293Z,26.70
2022-08-17T18:57:35.854Z,26.70
2022-08-17T19:00:13.877Z,26.60
2022-08-17T19:02:53.808Z,26.60
2022-08-17T19:05:35.828Z,26.50
2022-08-17T19:08:22.906Z,26.50
2022-08-17T19:10:56.578Z,26.40
2022-08-17T19:13:32.382Z,26.30
2022-08-17T19:16:14.851Z,26.30
2022-08-17T19:18:52.887Z,26.20
2022-08-17T19:21:28.126Z,26.20
2022-08-17T19:24:06.394Z,26.10
2022-08-17T19:26:54.709Z,26.00
2022-08-17T19:29:35.365Z,26.00
2022-08-17T19:32:08.124Z,25.90
2022-08-17T19:34:39.101Z,25.90
2022-08-17T19:37:18.395Z,25.80
2022-08-17T19:40:08.589Z,25.80
2022-08-17T19:42:53.673Z,25.60
2022-08-17T19:45:42.141Z,25.60
2022-08-17T19:48:25.530Z,25.50
2022-08-17T19:51:01.775Z,25.50
2022-08-17T19:54:04.492Z,25.40
2022-08-17T19:56:44.621Z,25.40
2022-08-17T19:59:26.074Z,25.30
2022-08-17T20:02:01.251Z,25.30
2022-08-17T20:04:42.113Z,25.10
2022-08-17T20:07:18.781Z,25.00
2022-08-17T20:09:54.081Z,24.90
2022-08-17T20:12:31.441Z,24.70
2022-08-17T20:15:07.533Z,24.70
2022-08-17T20:17:41.701Z,24.70
2022-08-17T20:20:35.402Z,24.60
2022-08-17T20:23:14.903Z,24.50
2022-08-17T20:26:00.215Z,24.50
2022-08-17T20:28:35.004Z,24.50
2022-08-17T20:31:42.291Z,24.40
2022-08-17T20:34:36.756Z,24.40
2022-08-17T20:37:11.164Z,24.30
2022-08-17T20:39:45.320Z,24.30
2022-08-17T20:42:31.150Z,24.20
2022-08-17T20:45:05.431Z,24.10
2022-08-17T20:47:50.618Z,24.00
2022-08-17T20:50:35.824Z,24.00
2022-08-17T20:53:13.501Z,23.90
2022-08-17T20:55:55.822Z,23.90
2022-08-17T20:58:48.466Z,23.80
2022-08-17T21:01:38.765Z,23.70
2022-08-17T21:04:29.947Z,23.70
2022-08-17T21:07:29.907Z,23.60
2022-08-17T21:10:17.207Z,23.50
2022-08-17T21:12:49.262Z,23.50
2022-08-17T21:15:37.323Z,23.50
2022-08-17T21:18:16.547Z,23.40
2022-08-17T21:21:04.728Z,23.30
2022-08-17T21:23:59.886Z,23.20
2022-08-17T21:26:50.320Z,23.20
2022-08-17T21:29:31.338Z,23.10
2022-08-17T21:32:24.680Z,23.10
2022-08-17T21:35:29.975Z,23.10
2022-08-17T21:38:05.041Z,23.00
2022-08-17T21:40:36.358Z,23.00
2022-08-17T21:43:24.826Z,23.00
2022-08-17T21:46:02.158Z,23.00
2022-08-17T21:48:33.101Z,22.90
2022-08-17T21:51:12.057Z,22.90
2022-08-17T21:53:52.147Z,22.90
2022-08-17T21:56:30.353Z,22.80
2022-08-17T21:59:05.997Z,22.80
2022-08-17T22:01:38.136Z,22.80
2022-08-17T22:04:20.592Z,22.70
2022-08-17T22:06:56.896Z,22.70
2022-08-17T22:09:31.520Z,22.70
2022-08-17T22:12:06.399Z,22.70
2022-08-17T22:14:53.164Z,22.70
2022-08-17T22:17:26.576Z,22.60
2022-08-17T22:20:02.270Z,22.60
2022-08-17T22:22:58.722Z,22.50
2022-08-17T22:25:29.427Z,22.60
2022-08-17T22:28:01.329Z,22.70
2022-08-17T22:30:36.552Z,22.60
2022-08-17T22:33:35.748Z,22.40
2022-08-17T22:36:29.649Z,22.30
2022-08-17T22:39:01.172Z,22.20
2022-08-17T22:41:51.142Z,22.20
2022-08-17T22:44:28.177Z,22.20
2022-08-17T22:47:11.461Z,22.20
2022-08-17T22:49:53.533Z,22.10
2022-08-17T22:52:33.871Z,22.10
2022-08-17T22:55:30.736Z,22.10
2022-08-17T22:58:17.825Z,22.10
2022-08-17T23:00:49.524Z,22.00
2022-08-17T23:03:22.713Z,22.00
2022-08-17T23:06:08.906Z,21.90
2022-08-17T23:08:47.862Z,21.90
2022-08-17T23:11:16.232Z,21.80
2022-08-17T23:13:44.682Z,21.80
2022-08-17T23:16:14.837Z,21.90
2022-08-17T23:18:47.910Z,21.90
2022-08-17T23:21:16.289Z,21.90
2022-08-17T23:23:55.122Z,21.90
2022-08-17T23:26:23.846Z,21.90
2022-08-17T23:28:52.192Z,21.80
2022-08-17T23:31:25.970Z,21.80
2022-08-17T23:33:56.195Z,21.80
2022-08-17T23:36:24.515Z,21.70
2022-08-17T23:38:54.497Z,21.70
2022-08-17T23:41:26.355Z,21.70
2022-08-17T23:43:55.145Z,21.70
2022-08-17T23:46:24.513Z,21.70
2022-08-17T23:48:55.183Z,21.70
2022-08-17T23:51:29.112Z,21.70
2022-08-17T23:54:07.889Z,21.60
2022-08-17T23:56:42.099Z,21.60
2022-08-17T23:59:11.297Z,21.60
